Timber Lake, Colorado
Current Conditions -  °F | °C
As of 8:53 PM on Friday 24 Oct 2014 (Local Time) from KLHX Reporting Station
Clear Clear  
Wind Chill: 63°   Ceiling: Unl
Heat Index: 63°   Visibility: 10mi
Dew Point: 34°   Wind: 7mph
Humidity: 34%   Direction: 100°E
Pressure: 30.12"   Gusts: NA
Location:  37.8368°N, 103.544°W
Report Text: KLHX 250253Z AUTO 10006KT 10SM CLR 17/01 A3012 RMK AO2 SLP158 T01720011 51011
Loading
Personal Weather Stations






























Interactive Weather Map
Tropical Storm Tracking
New forecast layout! Learn more

10-Day Weather Forecast

Advertisements
Track Severe Weather on mobile